Etusivu
METAR-TAF:

METAR-TAF

Lentoasemat :

Edwards County Airport

Rocksprings, Texas, Yhdysvallat

Leveyspiiri: 29-56-48N, Pituuspiiri: 100-10-25W, korkeus merenpinnasta: 723 m

Tämänhetkinen sää

Tämä raportti tehtiin 19 minuuttia sitten, kello 02.35 UTC
Tuuli 5 kn etelästä/kaakosta
Lämpötila 13°C
Kosteus 24%
Ilmanpaine 1029 hPa
Näkyvyys: 16.1 km
selkeää

METAR: KECU 290235Z AUTO 15005KT 10SM CLR 13/M07 A3038 RMK AO2

Aika: 20:54 (02:54 UTC)


TAF: puuttuu

Säähavainnot ja -ennusteet yli 4000 lentoasemalta (METAR- ja TAF-raportit).

Käytössä olevat sääasemat on merkitty karttaan keltaisilla ja punaisilla pisteillä.

Aseta hiiri pisteen päälle nähdäksesi sääaseman nimen.

Klikkaa sitten nähdäksesi säähavainnot ja -ennusteet.

Kartan vaihtaminen: klikkaa mustalla rastilla varustettuja vihreitä pisteitä, niin voit zoomata sisään; viivalla varustettua vihreää pistettä, niin voit zoomata ulos tai vihreitä nuolia, niin pääset viereisille kartoille.


METAR-TAF: